Time;durP1;ratioP1;P1;durP2;ratioP2;P2;SDS_P1;SDS_P2;PMS_P1;PMS_P2;Temp;Humidity;BMP_temperature;BMP_pressure;BME280_temperature;BME280_humidity;BME280_pressure;Samples;Min_cycle;Max_cycle;Signal;HPM_P1;HPM_P2
2022/08/12 00:43:13;;;;;;;3.60;3.30;;;21.50;99.90;;;;;;4937192;29;20482;-78
2022/08/12 00:49:02;;;;;;;3.40;3.10;;;21.40;99.90;;;;;;4942953;29;20418;-80
2022/08/12 00:54:55;;;;;;;3.60;3.30;;;21.40;99.90;;;;;;4954765;28;20417;-80
2022/08/12 00:57:48;;;;;;;7.40;3.20;;;21.30;99.90;;;;;;4999066;28;20459;-81
2022/08/12 01:00:35;;;;;;;3.70;3.40;;;21.30;99.90;;;;;;4937015;29;20422;-78
2022/08/12 01:12:45;;;;;;;4.43;4.03;;;21.00;99.90;;;;;;4982394;28;20490;-78
2022/08/12 01:15:30;;;;;;;4.07;3.43;;;21.00;99.90;;;;;;4970921;29;20394;-80
2022/08/12 01:18:15;;;;;;;7.60;3.83;;;21.00;99.90;;;;;;4971589;28;20416;-80
2022/08/12 01:21:16;;;;;;;4.17;3.80;;;20.90;99.90;;;;;;4919665;29;20452;-81
2022/08/12 01:24:21;;;;;;;6.70;3.50;;;20.80;99.90;;;;;;4933980;29;20523;-80
2022/08/12 01:27:10;;;;;;;6.70;3.40;;;20.70;99.90;;;;;;4933331;29;20870;-80
2022/08/12 01:29:56;;;;;;;3.57;3.37;;;20.60;99.90;;;;;;4957828;28;20880;-80
2022/08/12 01:32:47;;;;;;;4.03;3.07;;;20.50;99.90;;;;;;4986234;28;20422;-80
2022/08/12 01:35:37;;;;;;;4.13;3.37;;;20.40;99.90;;;;;;4972316;28;20430;-80
2022/08/12 01:38:24;;;;;;;4.13;3.73;;;20.40;99.90;;;;;;5000448;28;20431;-80
2022/08/12 01:41:11;;;;;;;5.30;3.53;;;20.40;99.90;;;;;;5010933;28;20416;-80
2022/08/12 01:43:59;;;;;;;3.67;3.33;;;20.40;99.90;;;;;;5024983;28;20466;-79
2022/08/12 01:47:13;;;;;;;3.90;3.50;;;20.40;99.90;;;;;;5011331;28;20419;-80
2022/08/12 01:50:19;;;;;;;8.80;4.27;;;20.40;99.90;;;;;;5026402;28;20440;-80
2022/08/12 01:53:10;;;;;;;5.20;4.20;;;20.40;99.90;;;;;;5080834;28;20947;-80
2022/08/12 01:55:57;;;;;;;4.13;3.57;;;20.40;99.90;;;;;;5064298;28;20456;-80
2022/08/12 02:01:53;;;;;;;4.20;3.60;;;20.30;99.90;;;;;;5061627;28;20973;-80
2022/08/12 02:11:33;;;;;;;5.20;3.17;;;20.30;99.90;;;;;;5020871;28;20458;-81
2022/08/12 02:14:38;;;;;;;3.70;3.20;;;20.20;99.90;;;;;;5019944;28;20416;-81
2022/08/12 02:17:53;;;;;;;5.53;3.50;;;20.20;99.90;;;;;;4980797;28;20475;-81
2022/08/12 02:20:52;;;;;;;3.80;3.50;;;20.20;99.90;;;;;;4968798;28;20409;-80
2022/08/12 02:23:38;;;;;;;4.80;4.00;;;20.20;99.90;;;;;;4980833;28;20518;-81
2022/08/12 02:26:26;;;;;;;7.80;3.53;;;20.10;99.90;;;;;;5002732;28;20414;-81
2022/08/12 02:29:19;;;;;;;5.00;4.00;;;20.20;99.90;;;;;;5011663;28;20453;-81
2022/08/12 02:32:05;;;;;;;5.00;3.53;;;20.10;99.90;;;;;;5012380;28;20442;-81
2022/08/12 02:34:50;;;;;;;5.90;3.47;;;20.00;99.90;;;;;;5045401;28;20425;-81
2022/08/12 02:37:37;;;;;;;10.53;3.60;;;20.00;99.90;;;;;;5031232;28;20466;-81
2022/08/12 02:40:27;;;;;;;4.50;4.10;;;20.00;99.90;;;;;;5047103;28;20410;-81
2022/08/12 02:43:17;;;;;;;7.17;3.77;;;19.90;99.90;;;;;;5044786;28;20480;-81
2022/08/12 02:46:08;;;;;;;7.10;3.53;;;19.90;99.90;;;;;;5059524;28;20401;-81
2022/08/12 02:48:59;;;;;;;4.20;3.43;;;19.80;99.90;;;;;;5096009;28;20434;-81
2022/08/12 02:51:45;;;;;;;4.73;3.67;;;19.70;99.90;;;;;;5122959;28;20423;-80
2022/08/12 02:54:30;;;;;;;5.47;3.40;;;19.60;99.90;;;;;;5045167;28;20494;-81
2022/08/12 02:57:18;;;;;;;4.30;3.77;;;19.40;99.90;;;;;;5032287;28;20448;-81
2022/08/12 03:00:06;;;;;;;5.00;4.10;;;19.40;99.90;;;;;;5031959;28;20406;-81
2022/08/12 03:02:54;;;;;;;3.37;3.07;;;19.30;99.90;;;;;;5046325;28;20417;-80
2022/08/12 03:05:47;;;;;;;3.67;3.17;;;19.30;99.90;;;;;;5046652;28;20426;-81
2022/08/12 03:08:42;;;;;;;4.97;3.73;;;19.20;99.90;;;;;;5029478;28;20441;-81
2022/08/12 03:11:41;;;;;;;3.53;3.23;;;19.30;99.90;;;;;;5029791;28;20387;-80
2022/08/12 03:14:29;;;;;;;10.73;3.97;;;19.30;99.90;;;;;;5014160;28;20438;-81
2022/08/12 03:17:38;;;;;;;13.33;3.53;;;19.30;99.90;;;;;;4969977;28;20409;-81
2022/08/12 03:20:24;;;;;;;3.40;3.10;;;19.40;99.90;;;;;;4931837;28;20421;-81
2022/08/12 03:23:11;;;;;;;3.53;3.23;;;19.30;99.90;;;;;;4967200;28;20485;-80
2022/08/12 03:26:00;;;;;;;5.33;3.40;;;19.30;99.90;;;;;;4984840;28;20455;-80
2022/08/12 03:29:06;;;;;;;4.07;3.57;;;19.20;99.90;;;;;;5003990;28;20482;-80
2022/08/12 03:31:58;;;;;;;4.77;4.30;;;19.20;99.90;;;;;;4977838;28;20456;-79
2022/08/12 03:34:49;;;;;;;3.47;3.07;;;19.00;99.90;;;;;;4951770;28;20436;-80
2022/08/12 03:37:36;;;;;;;3.30;3.00;;;18.90;99.90;;;;;;4955069;28;20417;-80
2022/08/12 04:02:25;;;;;;;3.30;3.10;;;18.80;99.90;;;;;;5059932;28;20421;-81
2022/08/12 04:05:12;;;;;;;5.77;3.73;;;18.70;99.90;;;;;;5034606;28;20414;-80
2022/08/12 04:08:40;;;;;;;3.83;3.50;;;18.70;99.90;;;;;;5033553;28;20437;-78
2022/08/12 04:14:53;;;;;;;6.13;4.57;;;18.70;99.90;;;;;;4960983;29;20467;-81
2022/08/12 04:17:41;;;;;;;3.67;3.37;;;18.60;99.90;;;;;;4916004;29;20924;-81
2022/08/12 04:20:48;;;;;;;3.83;3.40;;;18.60;99.90;;;;;;4940351;29;20411;-81
2022/08/12 04:23:37;;;;;;;5.63;3.50;;;18.70;99.90;;;;;;4938972;29;20613;-80
2022/08/12 04:26:41;;;;;;;3.63;3.33;;;18.70;99.90;;;;;;4925481;29;20407;-80
2022/08/12 04:29:27;;;;;;;4.17;3.67;;;18.70;99.90;;;;;;4925898;29;20442;-80
2022/08/12 04:32:12;;;;;;;5.20;3.30;;;18.70;99.90;;;;;;4939441;29;20923;-81
2022/08/12 04:34:59;;;;;;;4.97;3.60;;;18.60;99.90;;;;;;4924857;29;20482;-81
2022/08/12 04:38:04;;;;;;;5.63;3.40;;;18.60;99.90;;;;;;4900698;29;20484;-81
2022/08/12 04:40:52;;;;;;;4.00;2.97;;;18.60;99.90;;;;;;4887186;29;20854;-81
2022/08/12 04:43:37;;;;;;;3.83;3.40;;;18.80;99.90;;;;;;4881642;29;20568;-81
2022/08/12 04:46:25;;;;;;;3.37;3.07;;;18.80;99.90;;;;;;4919215;29;20980;-81
2022/08/12 04:49:13;;;;;;;4.60;4.20;;;18.90;99.90;;;;;;4920328;29;20689;-81
2022/08/12 04:52:19;;;;;;;3.17;2.90;;;18.90;99.90;;;;;;4937823;29;20443;-81
2022/08/12 04:55:05;;;;;;;3.80;3.10;;;19.00;99.90;;;;;;4913590;29;20544;-81
2022/08/12 04:57:49;;;;;;;3.23;2.93;;;19.00;99.90;;;;;;4914954;29;20459;-81
2022/08/12 05:00:35;;;;;;;4.27;3.90;;;19.10;99.90;;;;;;4939293;29;20464;-81
2022/08/12 05:03:21;;;;;;;4.10;3.20;;;19.20;99.90;;;;;;4939435;29;20459;-80
2022/08/12 05:06:06;;;;;;;3.50;3.20;;;19.20;99.90;;;;;;4913389;29;20940;-80
2022/08/12 05:08:53;;;;;;;3.10;2.90;;;19.30;99.90;;;;;;4926509;29;20415;-80
2022/08/12 05:11:38;;;;;;;7.33;3.00;;;19.30;99.90;;;;;;4942317;29;20746;-81
2022/08/12 05:14:24;;;;;;;4.50;2.40;;;19.30;99.90;;;;;;4912771;29;20443;-80
2022/08/12 05:17:09;;;;;;;4.03;3.43;;;19.30;99.90;;;;;;4921049;29;20835;-81
2022/08/12 05:19:54;;;;;;;4.37;3.57;;;19.30;99.90;;;;;;4924911;29;20412;-80
2022/08/12 05:22:40;;;;;;;3.60;3.30;;;19.30;99.90;;;;;;5012337;28;20926;-80
2022/08/12 05:25:27;;;;;;;7.10;3.90;;;19.30;99.90;;;;;;5017548;28;20441;-80
2022/08/12 05:28:15;;;;;;;13.50;3.50;;;19.40;99.90;;;;;;5029076;28;20535;-80
2022/08/12 05:31:01;;;;;;;3.33;3.07;;;19.30;99.90;;;;;;5042228;28;20481;-80
2022/08/12 05:34:13;;;;;;;4.57;3.20;;;19.40;99.90;;;;;;5057434;28;20453;-80
2022/08/12 05:37:00;;;;;;;6.93;3.30;;;19.50;99.90;;;;;;5011853;28;20567;-80
2022/08/12 05:39:45;;;;;;;5.83;2.87;;;19.50;99.90;;;;;;4998814;28;20516;-80
2022/08/12 05:42:32;;;;;;;3.87;3.17;;;19.70;99.90;;;;;;5011787;28;20552;-80
2022/08/12 05:45:16;;;;;;;3.87;3.47;;;19.70;99.90;;;;;;5030100;28;21039;-80
2022/08/12 05:48:05;;;;;;;6.33;3.47;;;19.80;99.90;;;;;;5034137;28;20594;-80
2022/08/12 05:50:49;;;;;;;3.23;2.90;;;19.90;99.90;;;;;;5030690;28;20426;-79
2022/08/12 05:53:33;;;;;;;5.53;3.17;;;19.90;99.90;;;;;;5038638;28;20783;-80
2022/08/12 05:56:23;;;;;;;4.27;3.00;;;20.00;99.90;;;;;;5025447;28;20446;-80
2022/08/12 05:59:10;;;;;;;3.37;3.07;;;20.10;99.90;;;;;;4999117;28;20416;-80
2022/08/12 06:02:10;;;;;;;5.60;2.60;;;20.20;99.90;;;;;;4980494;28;20465;-80
2022/08/12 06:04:59;;;;;;;5.50;3.80;;;20.20;99.90;;;;;;4999253;28;20467;-80
2022/08/12 06:08:05;;;;;;;5.53;3.60;;;20.30;99.90;;;;;;4999455;28;20413;-80
2022/08/12 06:10:53;;;;;;;8.23;3.43;;;20.30;99.90;;;;;;4936679;29;20450;-80
2022/08/12 06:13:42;;;;;;;4.10;3.30;;;20.50;99.90;;;;;;4919221;29;20527;-80
2022/08/12 06:16:30;;;;;;;3.70;2.60;;;20.50;99.90;;;;;;4876664;29;20422;-80
2022/08/12 06:19:15;;;;;;;5.47;3.17;;;20.50;99.90;;;;;;4877294;29;20426;-80
2022/08/12 06:22:03;;;;;;;3.67;3.37;;;20.60;99.90;;;;;;4914560;29;20483;-81
2022/08/12 06:24:53;;;;;;;3.60;2.97;;;20.70;99.90;;;;;;4922104;29;20519;-81
2022/08/12 06:27:48;;;;;;;3.93;3.57;;;20.70;99.90;;;;;;4932955;29;20438;-80
2022/08/12 06:30:34;;;;;;;4.57;3.77;;;20.70;99.90;;;;;;4941729;28;20578;-81
2022/08/12 06:33:19;;;;;;;5.80;2.63;;;20.70;99.90;;;;;;4946091;28;20498;-81
2022/08/12 06:36:26;;;;;;;6.10;3.97;;;20.70;99.90;;;;;;4943246;29;20532;-81
2022/08/12 06:39:14;;;;;;;5.43;3.03;;;20.60;99.90;;;;;;4933600;29;20471;-81
2022/08/12 06:44:59;;;;;;;3.03;2.83;;;20.70;99.90;;;;;;4878320;29;20852;-81
2022/08/12 06:47:47;;;;;;;5.97;3.40;;;20.90;99.90;;;;;;4888249;29;20444;-80
2022/08/12 06:50:32;;;;;;;6.07;3.77;;;20.90;99.90;;;;;;4867015;29;20439;-81
2022/08/12 06:53:18;;;;;;;14.10;4.83;;;21.00;99.90;;;;;;4860619;29;20442;-80
2022/08/12 06:56:05;;;;;;;3.03;2.73;;;21.10;99.90;;;;;;4845559;29;21956;-80
2022/08/12 06:58:54;;;;;;;5.57;3.30;;;21.20;99.90;;;;;;4851524;29;21232;-81
2022/08/12 07:01:39;;;;;;;4.87;2.70;;;21.20;99.90;;;;;;4877538;29;20436;-80
2022/08/12 07:04:26;;;;;;;9.70;3.20;;;21.40;99.90;;;;;;4869829;29;20849;-81
2022/08/12 07:07:21;;;;;;;4.10;2.83;;;21.50;99.90;;;;;;4844046;29;20438;-81
2022/08/12 07:10:06;;;;;;;5.43;3.63;;;21.50;99.90;;;;;;4842777;29;20524;-81
2022/08/12 07:12:53;;;;;;;4.93;3.30;;;21.60;99.90;;;;;;4845428;29;20525;-80
2022/08/12 07:15:38;;;;;;;5.70;4.63;;;21.70;99.90;;;;;;4802744;29;20461;-80
2022/08/12 07:18:30;;;;;;;4.53;3.30;;;21.70;99.90;;;;;;4841556;29;20478;-82
2022/08/12 07:21:16;;;;;;;11.50;4.07;;;21.80;99.90;;;;;;4823205;29;20464;-80
2022/08/12 07:24:00;;;;;;;3.77;3.47;;;21.90;99.90;;;;;;4847123;29;20485;-80
2022/08/12 07:26:46;;;;;;;3.10;2.80;;;22.00;99.90;;;;;;4855855;29;20441;-80
2022/08/12 07:29:33;;;;;;;7.43;3.13;;;22.10;99.90;;;;;;4903170;29;20420;-81
2022/08/12 07:32:18;;;;;;;5.80;3.40;;;22.30;99.90;;;;;;4905757;29;20431;-81
2022/08/12 07:35:06;;;;;;;4.10;3.10;;;22.30;99.90;;;;;;4926530;29;20475;-81
2022/08/12 07:37:52;;;;;;;8.57;3.63;;;22.40;99.90;;;;;;4942444;28;20453;-81
2022/08/12 07:40:36;;;;;;;6.73;3.60;;;22.60;99.90;;;;;;4961347;28;20437;-81
2022/08/12 07:43:21;;;;;;;4.80;2.70;;;22.70;99.90;;;;;;4968383;28;20936;-81
2022/08/12 07:46:07;;;;;;;2.57;2.37;;;22.80;99.90;;;;;;4992791;28;20437;-81
2022/08/12 07:48:56;;;;;;;6.20;3.13;;;22.90;99.90;;;;;;5013281;28;20569;-80
2022/08/12 07:51:44;;;;;;;8.23;3.20;;;22.90;99.90;;;;;;5020571;28;20570;-81
2022/08/12 07:54:48;;;;;;;2.80;2.30;;;23.10;99.90;;;;;;4998953;28;20443;-81
2022/08/12 07:57:58;;;;;;;5.33;3.00;;;23.20;99.50;;;;;;4983544;28;20562;-81
2022/08/12 08:00:44;;;;;;;2.90;2.57;;;23.40;99.90;;;;;;5010627;28;20486;-81
2022/08/12 08:03:33;;;;;;;5.93;3.53;;;23.50;99.00;;;;;;4975998;28;20462;-80
2022/08/12 08:06:20;;;;;;;3.43;2.93;;;23.60;98.70;;;;;;5003428;28;20436;-80
2022/08/12 08:09:07;;;;;;;3.80;2.20;;;23.70;98.70;;;;;;4977756;28;20500;-80
2022/08/12 08:15:38;;;;;;;2.93;2.40;;;23.90;98.90;;;;;;4880138;29;20532;-78
2022/08/12 08:18:43;;;;;;;2.57;2.37;;;23.80;91.10;;;;;;4873585;29;20457;-78
2022/08/12 08:21:31;;;;;;;2.77;2.57;;;23.90;90.90;;;;;;4835688;29;20496;-79
2022/08/12 08:24:18;;;;;;;2.50;2.30;;;24.00;90.90;;;;;;4813844;29;20501;-79
2022/08/12 08:27:04;;;;;;;3.33;2.20;;;24.00;88.70;;;;;;4830721;29;20506;-80
2022/08/12 08:30:10;;;;;;;5.27;2.10;;;24.00;86.00;;;;;;4812309;29;20929;-79
2022/08/12 08:32:55;;;;;;;2.27;2.07;;;24.10;87.10;;;;;;4774958;30;20467;-81
2022/08/12 08:35:41;;;;;;;2.13;2.00;;;24.30;82.90;;;;;;4789472;30;20489;-79
2022/08/12 08:38:26;;;;;;;3.20;1.87;;;24.20;80.90;;;;;;4797387;29;20438;-82
2022/08/12 08:44:10;;;;;;;2.37;1.93;;;24.20;83.10;;;;;;4846695;29;21145;-79
2022/08/12 08:46:55;;;;;;;1.93;1.83;;;24.40;84.50;;;;;;4884985;29;20510;-79
2022/08/12 08:49:39;;;;;;;2.53;1.87;;;24.50;84.10;;;;;;4888083;29;20466;-82
2022/08/12 08:52:24;;;;;;;1.83;1.70;;;24.50;81.20;;;;;;4935923;28;20505;-83
2022/08/12 08:55:12;;;;;;;1.93;1.83;;;24.60;80.50;;;;;;4957566;28;20446;-80
2022/08/12 08:57:57;;;;;;;2.20;2.10;;;24.40;78.60;;;;;;4939920;28;20542;-81
2022/08/12 09:00:42;;;;;;;4.00;2.00;;;24.50;79.50;;;;;;4952463;28;20449;-81
2022/08/12 09:03:28;;;;;;;4.10;2.27;;;24.60;77.70;;;;;;4992718;28;20459;-81
2022/08/12 09:06:13;;;;;;;2.83;2.53;;;24.60;78.40;;;;;;4994879;28;20431;-81
2022/08/12 09:08:58;;;;;;;3.60;2.10;;;24.50;80.00;;;;;;5015525;28;20439;-83
2022/08/12 09:14:42;;;;;;;2.93;2.73;;;24.50;80.00;;;;;;5006821;28;20499;-82
2022/08/12 09:17:29;;;;;;;2.40;2.20;;;24.70;79.20;;;;;;5093526;28;20466;-82
2022/08/12 09:20:15;;;;;;;2.57;2.37;;;24.70;79.90;;;;;;5094415;28;20458;-82
2022/08/12 09:23:01;;;;;;;2.90;2.47;;;25.00;78.10;;;;;;5095610;28;20435;-82
2022/08/12 09:25:47;;;;;;;3.20;1.80;;;25.20;82.00;;;;;;5085918;28;20454;-82
2022/08/12 09:28:33;;;;;;;2.27;2.07;;;25.00;75.90;;;;;;5079643;28;20473;-81
2022/08/12 09:31:17;;;;;;;2.63;2.00;;;25.20;77.70;;;;;;5089857;28;20439;-82
2022/08/12 09:34:02;;;;;;;2.23;2.03;;;25.10;79.40;;;;;;5075592;28;20454;-82
2022/08/12 09:36:46;;;;;;;2.10;1.80;;;25.30;77.80;;;;;;5070164;28;20471;-81
2022/08/12 09:39:31;;;;;;;2.17;1.97;;;25.20;71.20;;;;;;5093279;28;20433;-83
2022/08/12 09:45:21;;;;;;;3.10;2.17;;;25.00;75.10;;;;;;5077866;28;20441;-80
2022/08/12 09:48:05;;;;;;;2.50;2.30;;;25.10;73.00;;;;;;5042090;28;20499;-78
2022/08/12 09:50:51;;;;;;;9.50;2.30;;;25.50;76.40;;;;;;5071270;28;20446;-80
2022/08/12 09:53:35;;;;;;;2.80;2.17;;;25.90;72.30;;;;;;5084258;28;20453;-82
2022/08/12 09:56:20;;;;;;;2.40;2.13;;;26.00;69.00;;;;;;5078248;28;20590;-80
2022/08/12 09:59:09;;;;;;;2.80;2.23;;;25.80;70.70;;;;;;5069486;28;20441;-81
2022/08/12 10:01:54;;;;;;;2.47;2.27;;;25.80;70.40;;;;;;5068524;28;20431;-80
2022/08/12 10:04:47;;;;;;;5.73;2.30;;;25.90;71.10;;;;;;5083857;28;20484;-81
2022/08/12 10:07:35;;;;;;;1.90;1.80;;;26.20;71.40;;;;;;5084789;28;20500;-79
2022/08/12 10:10:19;;;;;;;3.27;2.20;;;25.50;67.70;;;;;;5069564;28;20448;-80
2022/08/12 10:16:02;;;;;;;3.00;2.60;;;25.50;71.30;;;;;;5076933;28;20481;-78
2022/08/12 10:18:54;;;;;;;2.00;1.90;;;25.70;70.40;;;;;;5081318;28;20443;-80
2022/08/12 10:21:40;;;;;;;2.50;2.23;;;25.80;70.20;;;;;;5026542;28;20998;-80
2022/08/12 10:24:24;;;;;;;2.33;2.10;;;26.10;69.60;;;;;;5023074;28;20851;-83
2022/08/12 10:30:09;;;;;;;4.20;2.40;;;26.70;68.00;;;;;;5021302;28;20454;-81
2022/08/12 10:32:58;;;;;;;3.67;2.40;;;26.60;71.30;;;;;;5029305;28;21086;-81
2022/08/12 10:35:43;;;;;;;3.17;2.40;;;26.30;72.80;;;;;;5006252;28;20458;-81
2022/08/12 10:38:28;;;;;;;3.87;2.53;;;26.00;72.20;;;;;;5021339;28;20530;-79
2022/08/12 10:44:11;;;;;;;3.60;2.50;;;25.60;71.20;;;;;;4978720;28;20486;-81
2022/08/12 10:46:56;;;;;;;4.77;2.63;;;26.20;73.70;;;;;;4989991;28;20455;-80
2022/08/12 10:49:43;;;;;;;2.33;2.20;;;26.60;71.80;;;;;;4985967;28;20443;-81
2022/08/12 10:52:29;;;;;;;2.97;2.67;;;26.90;69.00;;;;;;5022613;28;20435;-81
2022/08/12 10:55:14;;;;;;;6.07;2.40;;;27.30;69.60;;;;;;5036893;28;20500;-80
2022/08/12 10:58:00;;;;;;;2.40;2.20;;;27.00;66.10;;;;;;5043438;28;20488;-81
2022/08/12 11:00:45;;;;;;;2.47;2.27;;;27.00;66.70;;;;;;5041806;28;20441;-80
2022/08/12 11:03:35;;;;;;;2.17;2.03;;;26.80;68.30;;;;;;5048743;28;20632;-78
2022/08/12 11:06:20;;;;;;;3.37;2.50;;;26.40;68.20;;;;;;5046166;28;20502;-79
2022/08/12 11:09:05;;;;;;;1.77;1.67;;;27.10;66.10;;;;;;5042549;28;20432;-82
2022/08/12 11:11:50;;;;;;;4.10;1.90;;;27.10;64.00;;;;;;5048305;28;20455;-81
2022/08/12 11:14:37;;;;;;;1.93;1.60;;;26.90;65.30;;;;;;5085784;28;20516;-82
2022/08/12 11:17:22;;;;;;;4.10;1.93;;;26.90;63.90;;;;;;5072261;28;20519;-81
2022/08/12 11:20:07;;;;;;;2.10;2.00;;;27.20;66.80;;;;;;5091248;28;20442;-83
2022/08/12 11:22:55;;;;;;;2.27;2.07;;;27.00;65.90;;;;;;5080575;28;20622;-81
2022/08/12 11:25:51;;;;;;;1.97;1.87;;;27.10;67.80;;;;;;5059460;28;20490;-79
2022/08/12 11:28:39;;;;;;;5.13;1.70;;;27.30;64.80;;;;;;5008320;28;20435;-81
2022/08/12 11:31:25;;;;;;;2.13;1.93;;;27.30;63.40;;;;;;5014004;28;20492;-80
2022/08/12 11:34:09;;;;;;;2.30;2.10;;;27.80;63.80;;;;;;5009372;28;20514;-78
2022/08/12 11:36:57;;;;;;;1.83;1.73;;;28.40;59.40;;;;;;5016644;28;20430;-78
2022/08/12 11:39:41;;;;;;;3.80;2.00;;;28.50;60.30;;;;;;5023698;28;20964;-80
2022/08/12 11:42:26;;;;;;;1.60;1.50;;;29.30;57.90;;;;;;4993446;28;20227;-79
2022/08/12 11:45:12;;;;;;;2.45;1.77;;;29.60;58.20;;;;;;5054143;28;20199;-78
2022/08/12 11:47:58;;;;;;;2.03;1.70;;;30.70;55.00;;;;;;5038610;28;20246;-80
2022/08/12 11:50:43;;;;;;;3.13;1.88;;;29.20;52.80;;;;;;5045021;28;20178;-79
2022/08/12 11:53:28;;;;;;;1.58;1.42;;;29.80;54.90;;;;;;5029617;28;20608;-80
2022/08/12 11:56:13;;;;;;;3.70;1.60;;;29.70;53.40;;;;;;5024871;28;20202;-79
2022/08/12 11:58:57;;;;;;;2.55;1.50;;;30.00;52.70;;;;;;5062283;28;20927;-80
2022/08/12 12:01:42;;;;;;;1.50;1.40;;;29.90;53.20;;;;;;5099164;28;20207;-80
2022/08/12 12:04:26;;;;;;;1.88;1.77;;;29.60;52.30;;;;;;5088335;28;21024;-82
2022/08/12 12:07:10;;;;;;;1.83;1.73;;;30.30;52.60;;;;;;5100662;28;20184;-81
2022/08/12 12:09:58;;;;;;;1.95;1.40;;;30.40;51.30;;;;;;5083046;28;20188;-79
2022/08/12 12:12:42;;;;;;;2.47;1.40;;;30.20;50.40;;;;;;5090593;28;20606;-80
2022/08/12 12:15:27;;;;;;;2.45;1.42;;;30.20;51.00;;;;;;5084096;28;20195;-80
2022/08/12 12:18:25;;;;;;;5.60;1.80;;;30.40;49.00;;;;;;5101976;28;20184;-79
2022/08/12 12:21:09;;;;;;;1.65;1.42;;;29.10;50.50;;;;;;5088632;28;20185;-81
2022/08/12 12:23:54;;;;;;;1.60;1.50;;;29.10;50.40;;;;;;5099873;28;20240;-80
2022/08/12 12:26:39;;;;;;;3.80;2.00;;;29.20;49.70;;;;;;5057356;28;20319;-82
2022/08/12 12:29:23;;;;;;;2.25;1.40;;;29.00;50.00;;;;;;5106570;28;20241;-81
2022/08/12 12:32:08;;;;;;;1.63;1.38;;;29.40;49.70;;;;;;5102078;28;20252;-80
2022/08/12 12:34:55;;;;;;;1.58;1.48;;;30.10;48.80;;;;;;5098266;28;20231;-79
2022/08/12 12:37:57;;;;;;;2.90;1.33;;;30.20;48.90;;;;;;5092915;28;20255;-80
2022/08/12 12:40:44;;;;;;;3.22;2.15;;;30.60;49.20;;;;;;5100742;27;20285;-81
2022/08/12 12:43:31;;;;;;;1.50;1.40;;;31.10;49.50;;;;;;5096600;28;20239;-81
2022/08/12 12:46:17;;;;;;;1.60;1.50;;;29.90;49.20;;;;;;5109325;28;20293;-81
2022/08/12 12:49:05;;;;;;;2.10;1.88;;;29.80;49.70;;;;;;5112291;28;20207;-79
2022/08/12 12:51:52;;;;;;;1.70;1.60;;;29.80;50.90;;;;;;5101688;28;20253;-79
2022/08/12 12:54:37;;;;;;;2.95;2.50;;;30.10;50.00;;;;;;5099600;28;20284;-79
2022/08/12 12:57:25;;;;;;;3.05;1.40;;;29.60;49.30;;;;;;5052934;28;20217;-79
2022/08/12 13:00:14;;;;;;;3.47;1.45;;;29.70;49.40;;;;;;5030431;28;20309;-79
2022/08/12 13:02:59;;;;;;;5.47;5.18;;;28.80;49.50;;;;;;5023663;28;20246;-79
2022/08/12 13:05:51;;;;;;;1.92;1.83;;;29.10;52.50;;;;;;5014018;28;20239;-79
2022/08/12 13:08:37;;;;;;;1.55;1.45;;;30.20;50.40;;;;;;4974906;28;20617;-80
2022/08/12 13:11:24;;;;;;;1.30;1.20;;;31.50;50.00;;;;;;4970446;28;20635;-81
2022/08/12 13:14:11;;;;;;;1.88;1.77;;;29.60;47.90;;;;;;4965479;28;20308;-81
2022/08/12 13:17:21;;;;;;;1.52;1.40;;;30.50;51.10;;;;;;4922457;29;20262;-81
2022/08/12 13:20:08;;;;;;;1.48;1.38;;;30.00;48.90;;;;;;4910571;29;20199;-84
2022/08/12 13:22:52;;;;;;;1.77;1.15;;;30.40;48.00;;;;;;4878426;29;20191;-82
2022/08/12 13:25:59;;;;;;;2.13;1.40;;;30.50;48.50;;;;;;4877973;29;20215;-81
2022/08/12 13:28:52;;;;;;;1.60;1.50;;;31.10;48.50;;;;;;4899102;29;20198;-81
2022/08/12 13:31:37;;;;;;;3.47;1.60;;;31.60;48.60;;;;;;4895007;29;20251;-79
2022/08/12 13:34:23;;;;;;;1.73;1.63;;;31.00;48.70;;;;;;4866052;29;20242;-78
2022/08/12 13:37:28;;;;;;;3.45;1.70;;;29.60;48.80;;;;;;4895339;29;20212;-77
2022/08/12 13:40:32;;;;;;;1.58;1.48;;;30.40;50.10;;;;;;4881161;29;20220;-77
2022/08/12 13:43:24;;;;;;;2.08;1.88;;;29.90;48.50;;;;;;4883303;29;20212;-79
2022/08/12 13:46:13;;;;;;;2.75;1.70;;;29.70;50.30;;;;;;4862457;29;20204;-81
2022/08/12 13:48:58;;;;;;;1.98;1.42;;;30.00;49.70;;;;;;4900987;29;20631;-80
2022/08/12 13:51:51;;;;;;;1.63;1.52;;;29.90;49.70;;;;;;4876667;29;20312;-80
2022/08/12 13:54:36;;;;;;;1.73;1.63;;;29.80;49.40;;;;;;4886943;29;20224;-79
2022/08/12 13:57:39;;;;;;;1.75;1.60;;;29.20;50.50;;;;;;4861040;29;20764;-78
2022/08/12 14:00:25;;;;;;;1.60;1.50;;;28.80;50.50;;;;;;4881470;29;20195;-82
2022/08/12 14:03:11;;;;;;;1.73;1.50;;;28.90;51.90;;;;;;4878190;29;20227;-81
2022/08/12 14:05:58;;;;;;;1.77;1.67;;;29.30;54.50;;;;;;4894794;29;20540;-79
2022/08/12 14:08:43;;;;;;;1.80;1.70;;;29.60;51.70;;;;;;4953813;29;20206;-80
2022/08/12 14:11:37;;;;;;;1.50;1.40;;;29.10;50.30;;;;;;5046606;28;20330;-81
2022/08/12 14:14:23;;;;;;;1.60;1.40;;;29.10;51.40;;;;;;5031959;28;20802;-81
2022/08/12 14:17:09;;;;;;;1.60;1.50;;;29.20;51.40;;;;;;5018299;28;20210;-81
2022/08/12 14:20:15;;;;;;;1.73;1.63;;;29.80;51.00;;;;;;5018281;28;20194;-81
2022/08/12 14:23:01;;;;;;;2.03;1.83;;;29.10;51.70;;;;;;4990171;28;20860;-81
2022/08/12 14:26:05;;;;;;;3.17;1.50;;;28.40;52.50;;;;;;5028515;28;20537;-82
2022/08/12 14:28:52;;;;;;;1.90;1.80;;;28.20;53.00;;;;;;4982718;28;20433;-80
2022/08/12 14:31:41;;;;;;;2.00;1.90;;;28.20;53.50;;;;;;4978031;28;20493;-81
2022/08/12 14:34:29;;;;;;;2.20;1.77;;;28.10;54.00;;;;;;4974884;28;20549;-81
2022/08/12 14:37:18;;;;;;;2.43;1.73;;;27.80;52.20;;;;;;4957945;28;20436;-81
2022/08/12 14:40:04;;;;;;;3.13;2.83;;;27.80;53.30;;;;;;4942443;28;20432;-81
2022/08/12 14:42:49;;;;;;;1.80;1.70;;;28.10;53.00;;;;;;4948031;28;20488;-81
2022/08/12 14:45:35;;;;;;;2.00;1.90;;;28.80;52.00;;;;;;4985097;28;20436;-79
2022/08/12 14:48:20;;;;;;;2.90;2.00;;;29.00;53.10;;;;;;4981174;28;20465;-81
2022/08/12 14:51:28;;;;;;;1.77;1.67;;;28.90;52.10;;;;;;4981005;28;20564;-81
2022/08/12 14:54:18;;;;;;;2.03;1.73;;;29.00;53.50;;;;;;4982492;28;20508;-81
2022/08/12 14:57:05;;;;;;;2.37;1.90;;;28.80;53.40;;;;;;4952106;28;20994;-82
2022/08/12 15:03:02;;;;;;;2.30;2.10;;;29.90;51.80;;;;;;5001410;28;20433;-80
2022/08/12 15:05:46;;;;;;;4.10;2.25;;;30.10;52.00;;;;;;5062647;28;20229;-82
2022/08/12 15:08:39;;;;;;;2.00;1.90;;;29.40;51.90;;;;;;5021607;28;20199;-81
2022/08/12 15:11:26;;;;;;;1.70;1.60;;;29.00;52.80;;;;;;4983969;28;20231;-82
2022/08/12 15:14:11;;;;;;;1.60;1.50;;;28.70;51.90;;;;;;4998563;28;20255;-80
2022/08/12 15:17:04;;;;;;;3.50;2.47;;;28.40;52.10;;;;;;5002245;28;20443;-78
2022/08/12 15:19:53;;;;;;;2.30;2.10;;;28.50;52.20;;;;;;5000732;28;20490;-82
2022/08/12 15:22:39;;;;;;;1.53;1.43;;;28.60;53.90;;;;;;4985810;28;20447;-82
2022/08/12 15:25:32;;;;;;;2.17;1.80;;;29.20;53.80;;;;;;4964201;28;20472;-79
2022/08/12 15:28:26;;;;;;;2.23;2.03;;;29.30;52.30;;;;;;4966992;28;20475;-81
2022/08/12 15:31:14;;;;;;;3.40;1.87;;;29.50;53.10;;;;;;4948726;28;20461;-81
2022/08/12 15:34:21;;;;;;;2.50;2.30;;;29.20;51.00;;;;;;4958370;28;20228;-82
2022/08/12 15:37:07;;;;;;;2.28;1.90;;;29.60;51.50;;;;;;4916484;29;20219;-81
2022/08/12 15:40:14;;;;;;;1.90;1.80;;;29.50;52.30;;;;;;4882864;29;20758;-82
2022/08/12 15:42:59;;;;;;;2.38;2.17;;;29.30;51.40;;;;;;4845094;29;20353;-81
2022/08/12 15:45:46;;;;;;;1.75;1.65;;;29.40;51.80;;;;;;4854253;29;20254;-81
2022/08/12 15:48:33;;;;;;;2.45;1.95;;;29.50;51.00;;;;;;4838804;29;20197;-80
2022/08/12 15:51:36;;;;;;;1.83;1.73;;;29.70;51.00;;;;;;4846822;29;20202;-80
2022/08/12 15:54:22;;;;;;;3.88;2.10;;;30.60;51.30;;;;;;4846068;29;20234;-81
2022/08/12 15:57:07;;;;;;;2.00;1.90;;;31.60;50.50;;;;;;4834534;29;20234;-82
2022/08/12 15:59:52;;;;;;;2.55;1.50;;;31.00;49.20;;;;;;4830821;29;20217;-81
2022/08/12 16:02:43;;;;;;;2.00;1.80;;;31.10;50.40;;;;;;4865550;29;20229;-82
2022/08/12 16:05:31;;;;;;;2.45;2.25;;;29.90;50.40;;;;;;4852957;29;20252;-81
2022/08/12 16:08:15;;;;;;;2.55;2.13;;;29.60;51.50;;;;;;4882553;29;20187;-82
2022/08/12 16:11:00;;;;;;;1.85;1.65;;;29.50;51.50;;;;;;4903480;29;20343;-82
2022/08/12 16:13:45;;;;;;;2.57;2.40;;;29.00;51.30;;;;;;4903644;29;20213;-81
2022/08/12 16:16:33;;;;;;;1.87;1.77;;;28.70;52.40;;;;;;4941625;29;20704;-82
2022/08/12 16:19:36;;;;;;;2.60;2.00;;;28.50;52.70;;;;;;4941279;29;20496;-81
2022/08/12 16:22:27;;;;;;;2.03;1.93;;;28.00;53.10;;;;;;4942373;29;20478;-81
2022/08/12 16:25:12;;;;;;;2.70;2.50;;;27.70;55.00;;;;;;4963460;29;20465;-81
2022/08/12 16:28:01;;;;;;;2.80;2.60;;;27.60;54.20;;;;;;4929451;29;20478;-81
2022/08/12 16:30:45;;;;;;;6.37;4.50;;;27.70;55.00;;;;;;5005346;28;20440;-81
2022/08/12 16:33:34;;;;;;;2.60;2.40;;;27.60;56.30;;;;;;5019994;28;20468;-81
2022/08/12 16:36:19;;;;;;;4.10;2.07;;;27.40;55.50;;;;;;5025096;28;20410;-80
2022/08/12 16:39:03;;;;;;;2.53;2.33;;;27.40;55.40;;;;;;5052415;28;20964;-81